Edgemont, Arkansas
Current Conditions -  °F | °C
As of 1:55 AM on Monday 24 Nov 2014 (Local Time) from KCCA Reporting Station
Broken Clouds Broken Clouds  
Wind Chill: 50°   Ceiling: 3300
Heat Index: 50°   Visibility: 10mi
Dew Point: 41°   Wind: 14mph
Humidity: 71%   Direction: 290°WNW
Pressure: 29.56"   Gusts: 22mph
Location:  35.6°N, 92.2°W
Report Text: KCCA 240755Z AUTO 29012G19KT 10SM BKN033 BKN042 10/05 A2956 RMK AO2
Loading
Personal Weather Stations






























Interactive Weather Map New forecast layout! Learn more

10-Day Weather Forecast

Advertisements
Track Severe Weather on mobile